SPWJC EPBY-EPBY
Flight info
| Callsign | SPWJC |
|---|---|
| Flight time | 0h 4m |
| Altitude | 3000 |
| Route | TRAFFIC PATTERNS |
| Aircraft | C172/L-SFG/C |
Departure
| Time | 2026-05-05 20:53 |
|---|---|
| Airport | Ignacy Jan Paderewski Bydgoszcz Airport (EPBY) |
Arrival
| Time | 2026-05-05 20:57 |
|---|---|
| Airport | Ignacy Jan Paderewski Bydgoszcz Airport (EPBY) |
| Time | Latitude | Longitude | Altitude | Speed | Heading |
|---|---|---|---|---|---|
| 2026-05-05 20:41 | 53.09290 | 17.96520 | 238 ft | 0 kts | 325° |
| 2026-05-05 20:46 | 53.09293 | 17.96516 | 238 ft | 5 kts | 327° |
| 2026-05-05 20:46 | 53.09322 | 17.96641 | 234 ft | 23 kts | 79° |
| 2026-05-05 20:47 | 53.09378 | 17.96869 | 231 ft | 16 kts | 1° |
| 2026-05-05 20:47 | 53.09489 | 17.96846 | 227 ft | 17 kts | 352° |
| 2026-05-05 20:47 | 53.09515 | 17.96840 | 226 ft | 0 kts | 350° |
| 2026-05-05 20:51 | 53.09572 | 17.96826 | 223 ft | 12 kts | 358° |
| 2026-05-05 20:51 | 53.09607 | 17.96903 | 222 ft | 5 kts | 82° |
| 2026-05-05 20:52 | 53.09607 | 17.96906 | 222 ft | 0 kts | 84° |
| 2026-05-05 20:52 | 53.09616 | 17.97014 | 222 ft | 35 kts | 86° |
| 2026-05-05 20:52 | 53.09656 | 17.97655 | 250 ft | 67 kts | 80° |
| 2026-05-05 20:52 | 53.09745 | 17.98521 | 349 ft | 83 kts | 75° |
| 2026-05-05 20:53 | 53.09854 | 17.99432 | 618 ft | 77 kts | 82° |
| 2026-05-05 20:53 | 53.09912 | 18.00308 | 853 ft | 76 kts | 77° |
| 2026-05-05 20:53 | 53.09855 | 18.01205 | 1048 ft | 84 kts | 109° |
| 2026-05-05 20:53 | 53.09394 | 18.01878 | 1238 ft | 95 kts | 148° |
| 2026-05-05 20:54 | 53.08708 | 18.01872 | 1412 ft | 107 kts | 188° |
| 2026-05-05 20:54 | 53.08054 | 18.01093 | 1465 ft | 125 kts | 226° |
| 2026-05-05 20:54 | 53.07723 | 17.99701 | 1480 ft | 134 kts | 260° |
| 2026-05-05 20:54 | 53.07570 | 17.98156 | 1479 ft | 137 kts | 262° |
| 2026-05-05 20:55 | 53.07438 | 17.96673 | 1470 ft | 119 kts | 261° |
| 2026-05-05 20:55 | 53.07331 | 17.95411 | 1473 ft | 105 kts | 262° |
| 2026-05-05 20:55 | 53.07230 | 17.94260 | 1452 ft | 94 kts | 282° |
| 2026-05-05 20:55 | 53.07801 | 17.93824 | 825 ft | 98 kts | 5° |
| 2026-05-05 20:56 | 53.08387 | 17.93778 | 721 ft | 64 kts | 8° |
| 2026-05-05 20:56 | 53.08796 | 17.93655 | 592 ft | 54 kts | 8° |
| 2026-05-05 20:56 | 53.09163 | 17.93744 | 491 ft | 56 kts | 26° |
| 2026-05-05 20:56 | 53.09345 | 17.94224 | 459 ft | 53 kts | 74° |
| 2026-05-05 20:57 | 53.09443 | 17.94808 | 406 ft | 55 kts | 93° |
| 2026-05-05 20:57 | 53.09483 | 17.95425 | 338 ft | 54 kts | 86° |
| 2026-05-05 20:57 | 53.09531 | 17.96061 | 253 ft | 58 kts | 78° |
| 2026-05-05 20:57 | 53.09576 | 17.96671 | 223 ft | 40 kts | 85° |
| 2026-05-05 20:58 | 53.09608 | 17.97004 | 222 ft | 20 kts | 73° |
| 2026-05-05 20:58 | 53.09623 | 17.97129 | 221 ft | 0 kts | 83° |
| 2026-05-05 20:58 | 53.09623 | 17.97130 | 221 ft | 0 kts | 82° |
| 2026-05-05 20:58 | 53.09655 | 17.97494 | 223 ft | 59 kts | 80° |
| 2026-05-05 20:59 | 53.09681 | 17.98267 | 416 ft | 67 kts | 88° |
| 2026-05-05 20:59 | 53.09718 | 17.98966 | 731 ft | 55 kts | 78° |
| 2026-05-05 20:59 | 53.09732 | 17.99481 | 995 ft | 46 kts | 79° |
| 2026-05-05 20:59 | 53.09585 | 18.00070 | 1131 ft | 68 kts | 115° |
| 2026-05-05 21:00 | 53.09121 | 18.00525 | 1259 ft | 90 kts | 155° |
| 2026-05-05 21:00 | 53.08438 | 18.00387 | 1373 ft | 110 kts | 195° |
| 2026-05-05 21:00 | 53.07840 | 17.99504 | 1467 ft | 123 kts | 233° |
| 2026-05-05 21:00 | 53.07571 | 17.98093 | 1484 ft | 131 kts | 261° |
| 2026-05-05 21:01 | 53.07413 | 17.96556 | 1486 ft | 136 kts | 261° |
| 2026-05-05 21:01 | 53.07268 | 17.94987 | 1472 ft | 138 kts | 262° |
| 2026-05-05 21:01 | 53.07129 | 17.93394 | 1472 ft | 139 kts | 262° |
| 2026-05-05 21:01 | 53.06979 | 17.91855 | 1455 ft | 124 kts | 261° |
| 2026-05-05 21:02 | 53.07027 | 17.90554 | 1289 ft | 106 kts | 298° |
| 2026-05-05 21:02 | 53.07431 | 17.89685 | 1099 ft | 89 kts | 333° |
| 2026-05-05 21:02 | 53.07910 | 17.89368 | 1013 ft | 60 kts | 13° |
| 2026-05-05 21:02 | 53.08322 | 17.89490 | 964 ft | 62 kts | 22° |
| 2026-05-05 21:03 | 53.08700 | 17.89781 | 979 ft | 57 kts | 39° |
| 2026-05-05 21:03 | 53.08987 | 17.90266 | 958 ft | 58 kts | 62° |
| 2026-05-05 21:03 | 53.09100 | 17.90902 | 954 ft | 58 kts | 78° |
| 2026-05-05 21:03 | 53.09155 | 17.91583 | 886 ft | 61 kts | 78° |
| 2026-05-05 21:04 | 53.09219 | 17.92291 | 772 ft | 62 kts | 78° |
| 2026-05-05 21:04 | 53.09287 | 17.92993 | 659 ft | 61 kts | 79° |
| 2026-05-05 21:04 | 53.09341 | 17.93702 | 569 ft | 59 kts | 79° |
| 2026-05-05 21:04 | 53.09391 | 17.94382 | 468 ft | 62 kts | 78° |
| 2026-05-05 21:05 | 53.09454 | 17.95098 | 363 ft | 62 kts | 77° |
| 2026-05-05 21:05 | 53.09375 | 17.95685 | 463 ft | 56 kts | 117° |
| 2026-05-05 21:05 | 53.09518 | 17.96305 | 517 ft | 67 kts | 66° |
| 2026-05-05 21:05 | 53.09636 | 17.97171 | 635 ft | 81 kts | 75° |
| 2026-05-05 21:06 | 53.09713 | 17.98130 | 772 ft | 88 kts | 79° |
| 2026-05-05 21:06 | 53.09732 | 17.99167 | 896 ft | 93 kts | 98° |
| 2026-05-05 21:06 | 53.09314 | 18.00034 | 1016 ft | 103 kts | 143° |
| 2026-05-05 21:06 | 53.08582 | 18.00177 | 1129 ft | 114 kts | 186° |
| 2026-05-05 21:07 | 53.07916 | 17.99416 | 1237 ft | 122 kts | 229° |
| 2026-05-05 21:07 | 53.07629 | 17.98082 | 1362 ft | 123 kts | 261° |
| 2026-05-05 21:07 | 53.07471 | 17.96655 | 1475 ft | 127 kts | 262° |
| 2026-05-05 21:07 | 53.07409 | 17.95280 | 1390 ft | 111 kts | 289° |
| 2026-05-05 21:08 | 53.07814 | 17.94399 | 1231 ft | 93 kts | 338° |
| 2026-05-05 21:08 | 53.08270 | 17.93815 | 1017 ft | 81 kts | 319° |
| 2026-05-05 21:08 | 53.08695 | 17.93431 | 821 ft | 63 kts | 11° |
| 2026-05-05 21:08 | 53.09093 | 17.93651 | 593 ft | 58 kts | 38° |
| 2026-05-05 21:09 | 53.09332 | 17.94196 | 423 ft | 57 kts | 62° |
| 2026-05-05 21:09 | 53.09432 | 17.94827 | 371 ft | 56 kts | 80° |
| 2026-05-05 21:09 | 53.09486 | 17.95483 | 317 ft | 56 kts | 76° |
| 2026-05-05 21:09 | 53.09544 | 17.96161 | 235 ft | 59 kts | 80° |
| 2026-05-05 21:10 | 53.09585 | 17.96695 | 223 ft | 27 kts | 93° |
| 2026-05-05 21:10 | 53.09433 | 17.96859 | 229 ft | 30 kts | 171° |
| 2026-05-05 21:10 | 53.09320 | 17.96614 | 235 ft | 41 kts | 261° |
| 2026-05-05 21:10 | 53.09282 | 17.96465 | 238 ft | 0 kts | 201° |
| 2026-05-05 21:11 | 53.09276 | 17.96514 | 238 ft | 11 kts | 122° |
| 2026-05-05 21:11 | 53.09287 | 17.96529 | 238 ft | 2 kts | 302° |